Time;durP1;ratioP1;P1;durP2;ratioP2;P2;SDS_P1;SDS_P2;PMS_P1;PMS_P2;Temp;Humidity;BMP_temperature;BMP_pressure;BME280_temperature;BME280_humidity;BME280_pressure;Samples;Min_cycle;Max_cycle;Signal;HPM_P1;HPM_P2
2023/01/20 00:01:21;;;;;;;7.23;6.20;;;2.00;99.90;;;;;;5087192;28;20197;-77
2023/01/20 00:03:48;;;;;;;7.30;6.60;;;1.90;99.90;;;;;;5086190;28;20231;-79
2023/01/20 00:06:15;;;;;;;9.03;7.37;;;1.90;99.90;;;;;;5086684;28;20608;-81
2023/01/20 00:08:42;;;;;;;8.40;6.73;;;1.90;99.90;;;;;;5087273;28;20211;-79
2023/01/20 00:11:12;;;;;;;8.73;7.83;;;2.00;99.90;;;;;;5086200;28;20321;-80
2023/01/20 00:13:39;;;;;;;12.80;8.17;;;2.00;99.90;;;;;;5086797;28;20193;-79
2023/01/20 00:16:09;;;;;;;10.23;8.60;;;2.00;99.90;;;;;;5086494;28;20994;-79
2023/01/20 00:18:36;;;;;;;10.63;8.27;;;2.00;99.90;;;;;;5085698;28;20224;-79
2023/01/20 00:21:04;;;;;;;11.73;9.53;;;2.00;99.90;;;;;;5087332;28;20512;-79
2023/01/20 00:23:31;;;;;;;10.07;8.97;;;1.90;99.90;;;;;;5086057;28;20280;-80
2023/01/20 00:25:58;;;;;;;12.33;9.53;;;1.90;99.90;;;;;;5086245;28;20204;-79
2023/01/20 00:28:27;;;;;;;16.37;10.30;;;1.90;99.90;;;;;;5086026;28;21001;-80
2023/01/20 00:30:54;;;;;;;12.23;9.40;;;1.80;99.90;;;;;;5084029;28;20707;-79
2023/01/20 00:33:20;;;;;;;14.97;10.43;;;1.80;99.90;;;;;;5085592;28;20228;-80
2023/01/20 00:35:47;;;;;;;12.23;10.00;;;1.80;99.90;;;;;;5085211;28;20328;-80
2023/01/20 00:38:14;;;;;;;12.70;10.13;;;1.80;99.90;;;;;;5084751;28;20234;-81
2023/01/20 00:40:41;;;;;;;11.17;9.73;;;1.80;99.90;;;;;;5084982;28;20251;-78
2023/01/20 00:43:10;;;;;;;10.17;9.07;;;1.70;99.90;;;;;;5086226;28;20655;-77
2023/01/20 00:45:41;;;;;;;10.53;8.93;;;1.70;99.90;;;;;;5083972;28;20842;-79
2023/01/20 00:48:07;;;;;;;13.17;8.47;;;1.70;99.90;;;;;;5085568;28;20193;-79
2023/01/20 00:50:35;;;;;;;9.50;8.03;;;1.70;99.90;;;;;;5084887;28;20222;-77
2023/01/20 00:53:01;;;;;;;10.93;8.40;;;1.70;99.90;;;;;;5084960;28;20207;-77
2023/01/20 00:55:28;;;;;;;10.63;8.43;;;1.70;99.90;;;;;;5084558;28;20234;-79
2023/01/20 00:57:55;;;;;;;10.40;8.17;;;1.70;99.90;;;;;;5084430;28;20663;-78
2023/01/20 01:00:22;;;;;;;11.80;8.40;;;1.70;99.90;;;;;;5084551;28;20200;-80
2023/01/20 01:02:50;;;;;;;10.30;7.67;;;1.70;99.90;;;;;;5087005;28;20209;-79
2023/01/20 01:05:17;;;;;;;9.07;7.33;;;1.70;99.90;;;;;;5105690;28;20283;-80
2023/01/20 01:07:44;;;;;;;11.17;7.70;;;1.70;99.90;;;;;;5104573;28;20643;-79
2023/01/20 01:10:11;;;;;;;10.67;8.03;;;1.70;99.90;;;;;;5105625;28;20200;-83
2023/01/20 01:12:38;;;;;;;12.57;8.10;;;1.60;99.90;;;;;;5099357;28;20201;-79
2023/01/20 01:15:06;;;;;;;9.77;7.40;;;1.60;99.90;;;;;;5095658;28;20212;-79
2023/01/20 01:17:33;;;;;;;9.87;7.53;;;1.60;99.90;;;;;;5106064;28;20279;-81
2023/01/20 01:20:01;;;;;;;9.30;6.90;;;1.60;99.90;;;;;;5100050;28;20307;-80
2023/01/20 01:22:28;;;;;;;7.00;6.10;;;1.60;99.90;;;;;;5086194;28;20201;-82
2023/01/20 01:24:55;;;;;;;9.23;6.13;;;1.60;99.90;;;;;;5086901;28;20213;-80
2023/01/20 01:27:22;;;;;;;8.60;5.53;;;1.50;99.90;;;;;;5085716;28;20189;-79
2023/01/20 01:29:49;;;;;;;8.43;5.93;;;1.70;99.90;;;;;;5104421;28;20327;-82
2023/01/20 01:32:16;;;;;;;6.13;5.07;;;1.70;99.90;;;;;;5093126;28;20200;-81
2023/01/20 01:34:42;;;;;;;10.10;5.27;;;1.70;99.90;;;;;;5085815;28;20461;-82
2023/01/20 01:37:11;;;;;;;6.43;4.77;;;1.70;99.90;;;;;;5086991;28;20250;-78
2023/01/20 01:39:38;;;;;;;6.73;4.40;;;1.70;99.90;;;;;;5084746;28;20315;-81
2023/01/20 01:42:11;;;;;;;5.93;4.07;;;1.70;99.90;;;;;;5082995;28;20205;-80
2023/01/20 01:44:59;;;;;;;5.43;4.63;;;1.60;99.90;;;;;;5083312;28;20246;-79
2023/01/20 01:47:26;;;;;;;7.80;4.80;;;1.60;99.90;;;;;;5084709;28;21048;-81
2023/01/20 01:49:53;;;;;;;7.80;4.47;;;1.70;99.90;;;;;;5084707;28;20291;-80
2023/01/20 01:52:21;;;;;;;5.77;4.57;;;1.70;99.90;;;;;;5097944;28;20340;-80
2023/01/20 01:54:49;;;;;;;8.30;4.90;;;1.70;99.90;;;;;;5104907;28;20219;-79
2023/01/20 01:57:16;;;;;;;8.37;5.10;;;1.70;99.90;;;;;;5103925;28;20319;-80
2023/01/20 01:59:44;;;;;;;4.87;4.10;;;1.80;99.90;;;;;;5102751;28;20226;-80
2023/01/20 02:02:10;;;;;;;6.30;5.13;;;1.80;99.90;;;;;;5083897;28;20519;-80
2023/01/20 02:04:38;;;;;;;6.00;5.00;;;1.80;99.90;;;;;;5083559;28;20561;-80
2023/01/20 02:07:09;;;;;;;8.53;5.10;;;1.70;99.90;;;;;;5083819;28;20204;-80
2023/01/20 02:09:37;;;;;;;6.60;5.00;;;1.80;99.90;;;;;;5097444;28;20196;-80
2023/01/20 02:12:09;;;;;;;7.60;5.33;;;1.70;99.90;;;;;;5102964;28;20308;-80
2023/01/20 02:14:40;;;;;;;10.07;6.20;;;1.70;99.90;;;;;;5082533;28;20200;-81
2023/01/20 02:17:19;;;;;;;11.30;7.40;;;1.70;99.90;;;;;;5082284;28;20240;-80
2023/01/20 02:20:22;;;;;;;12.73;8.23;;;1.70;99.90;;;;;;5083535;28;20214;-79
2023/01/20 02:22:55;;;;;;;10.90;8.40;;;1.70;99.90;;;;;;5083309;28;20208;-79
2023/01/20 02:26:15;;;;;;;13.70;9.43;;;1.70;99.90;;;;;;5083402;28;20596;-80
2023/01/20 02:29:24;;;;;;;13.43;10.07;;;1.70;99.90;;;;;;5084623;28;20196;-80
2023/01/20 02:32:13;;;;;;;16.37;11.40;;;1.60;99.90;;;;;;5070176;28;20287;-79
2023/01/20 02:34:46;;;;;;;17.47;11.47;;;1.60;99.90;;;;;;5103603;28;20768;-82
2023/01/20 02:37:15;;;;;;;19.17;12.93;;;1.60;99.90;;;;;;5104439;28;20508;-80
2023/01/20 02:39:50;;;;;;;20.77;13.67;;;1.60;99.90;;;;;;5085184;28;20224;-81
2023/01/20 02:42:22;;;;;;;20.73;14.13;;;1.60;99.90;;;;;;5083756;28;20200;-83
2023/01/20 02:44:54;;;;;;;20.47;14.97;;;1.60;99.90;;;;;;5085247;28;20206;-80
2023/01/20 02:47:28;;;;;;;25.97;15.93;;;1.60;99.90;;;;;;5066977;28;20200;-80
2023/01/20 02:50:00;;;;;;;23.00;15.27;;;1.70;99.90;;;;;;5085253;28;20287;-80
2023/01/20 02:52:29;;;;;;;22.37;15.93;;;1.60;99.90;;;;;;5084083;28;20291;-80
2023/01/20 02:55:02;;;;;;;25.00;16.93;;;1.60;99.90;;;;;;5084412;28;20262;-80
2023/01/20 02:57:32;;;;;;;25.67;18.03;;;1.70;99.90;;;;;;5082957;28;20204;-79
2023/01/20 03:00:08;;;;;;;28.73;18.23;;;1.70;99.90;;;;;;5083119;28;20232;-81
2023/01/20 03:02:38;;;;;;;25.23;17.93;;;1.70;99.90;;;;;;5084694;28;20299;-80
2023/01/20 03:05:09;;;;;;;29.67;18.77;;;1.70;99.90;;;;;;5084838;28;20211;-82
2023/01/20 03:07:39;;;;;;;31.37;19.77;;;1.70;99.90;;;;;;5083605;28;20196;-82
2023/01/20 03:10:09;;;;;;;31.63;19.77;;;1.70;99.90;;;;;;5085610;28;20289;-80
2023/01/20 03:12:41;;;;;;;28.87;20.40;;;1.70;99.90;;;;;;5084831;28;20195;-82
2023/01/20 03:15:10;;;;;;;27.07;18.57;;;1.70;99.90;;;;;;5084938;28;20216;-82
2023/01/20 03:17:38;;;;;;;34.67;21.83;;;1.70;99.90;;;;;;5101906;28;20738;-81
2023/01/20 03:20:06;;;;;;;35.33;22.30;;;1.70;99.90;;;;;;5105297;28;20258;-81
2023/01/20 03:22:33;;;;;;;35.13;20.77;;;1.60;99.90;;;;;;5104098;28;20268;-81
2023/01/20 03:25:01;;;;;;;34.33;21.50;;;1.60;99.90;;;;;;5090185;28;20208;-82
2023/01/20 03:27:28;;;;;;;29.60;20.27;;;1.70;99.90;;;;;;5084116;28;20204;-80
2023/01/20 03:29:55;;;;;;;29.43;20.37;;;1.70;99.90;;;;;;5085657;28;20196;-83
2023/01/20 03:32:25;;;;;;;30.40;19.40;;;1.70;99.90;;;;;;5084572;28;20208;-81
2023/01/20 03:34:55;;;;;;;27.13;17.60;;;1.60;99.90;;;;;;5088652;28;20196;-80
2023/01/20 03:37:22;;;;;;;33.13;19.97;;;1.60;99.90;;;;;;5088312;28;20200;-80
2023/01/20 03:39:50;;;;;;;31.63;20.47;;;1.60;99.90;;;;;;5085932;28;20228;-79
2023/01/20 03:42:25;;;;;;;32.63;19.13;;;1.60;99.90;;;;;;5085952;28;20622;-79
2023/01/20 03:45:01;;;;;;;28.90;18.40;;;1.60;99.90;;;;;;5085944;28;20659;-78
2023/01/20 03:47:44;;;;;;;29.33;19.53;;;1.70;99.90;;;;;;5086482;28;20204;-78
2023/01/20 03:50:21;;;;;;;28.63;17.73;;;1.60;99.90;;;;;;5087021;28;20275;-78
2023/01/20 03:52:52;;;;;;;27.30;18.00;;;1.60;99.90;;;;;;5086406;28;20202;-78
2023/01/20 03:55:24;;;;;;;34.47;18.57;;;1.70;99.90;;;;;;5086292;28;20842;-79
2023/01/20 03:57:56;;;;;;;27.23;16.97;;;1.70;99.90;;;;;;5100857;28;20283;-83
2023/01/20 04:00:26;;;;;;;26.90;18.03;;;1.70;99.90;;;;;;5107162;28;20228;-80
2023/01/20 04:02:55;;;;;;;28.73;15.80;;;1.70;99.90;;;;;;5090982;28;20281;-81
2023/01/20 04:05:23;;;;;;;23.73;12.50;;;1.80;99.90;;;;;;5087394;28;20211;-79
2023/01/20 04:07:53;;;;;;;12.27;7.17;;;1.80;99.90;;;;;;5087463;28;20203;-80
2023/01/20 04:10:20;;;;;;;12.10;6.00;;;1.90;99.90;;;;;;5086638;28;20645;-80
2023/01/20 04:12:47;;;;;;;13.53;4.30;;;2.00;99.90;;;;;;5086733;28;20221;-82
2023/01/20 04:15:14;;;;;;;8.40;4.03;;;2.10;99.90;;;;;;5086862;28;20201;-81
2023/01/20 04:17:41;;;;;;;8.27;4.40;;;2.10;99.90;;;;;;5088514;28;20200;-83
2023/01/20 04:20:10;;;;;;;10.03;5.20;;;2.20;99.90;;;;;;5089123;28;20758;-84
2023/01/20 04:22:48;;;;;;;12.07;4.53;;;2.20;99.90;;;;;;5088668;28;20219;-81
2023/01/20 04:25:22;;;;;;;11.13;4.20;;;2.20;99.90;;;;;;5088184;28;20272;-82
2023/01/20 04:27:49;;;;;;;9.63;4.10;;;2.20;99.90;;;;;;5088024;28;20216;-82
2023/01/20 04:30:16;;;;;;;8.50;4.57;;;2.30;99.90;;;;;;5088282;28;20307;-82
2023/01/20 04:32:43;;;;;;;4.57;3.47;;;2.30;99.90;;;;;;5088375;28;20208;-83
2023/01/20 04:35:12;;;;;;;8.17;4.27;;;2.30;99.90;;;;;;5088522;28;20223;-82
2023/01/20 04:37:41;;;;;;;7.13;4.50;;;2.30;99.90;;;;;;5088573;28;20266;-84
2023/01/20 04:40:09;;;;;;;7.60;3.47;;;2.40;99.90;;;;;;5102161;28;20230;-82
2023/01/20 04:42:37;;;;;;;6.63;3.00;;;2.40;99.90;;;;;;5108676;28;20232;-82
2023/01/20 04:45:04;;;;;;;6.17;3.20;;;2.40;99.90;;;;;;5108950;28;20292;-84
2023/01/20 04:47:32;;;;;;;5.67;2.90;;;2.40;99.90;;;;;;5102103;28;20353;-84
2023/01/20 04:50:01;;;;;;;4.20;3.07;;;2.30;99.90;;;;;;5091389;28;20608;-84
2023/01/20 04:52:28;;;;;;;6.33;3.10;;;2.30;99.90;;;;;;5090730;28;20845;-85
2023/01/20 04:54:57;;;;;;;6.37;2.73;;;2.30;99.90;;;;;;5074093;28;20515;-82
2023/01/20 04:57:24;;;;;;;4.30;3.40;;;2.20;99.90;;;;;;5096191;28;20547;-85
2023/01/20 04:59:51;;;;;;;9.20;4.20;;;2.20;99.90;;;;;;5110993;28;20330;-84
2023/01/20 05:02:18;;;;;;;7.57;4.00;;;2.20;99.90;;;;;;5092706;28;20196;-84
2023/01/20 05:04:45;;;;;;;10.80;4.60;;;2.20;99.90;;;;;;5089469;28;20498;-84
2023/01/20 05:07:12;;;;;;;8.83;4.90;;;2.10;99.90;;;;;;5089726;28;20546;-84
2023/01/20 05:09:39;;;;;;;7.60;4.80;;;2.10;99.90;;;;;;5089958;28;20207;-81
2023/01/20 05:12:07;;;;;;;8.07;4.87;;;2.10;99.90;;;;;;5089660;28;20232;-84
2023/01/20 05:14:34;;;;;;;10.97;6.37;;;2.10;99.90;;;;;;5089639;28;20201;-84
2023/01/20 05:17:01;;;;;;;15.17;7.47;;;2.10;99.90;;;;;;5090009;28;20200;-82
2023/01/20 05:19:29;;;;;;;15.77;8.47;;;2.10;99.90;;;;;;5069356;28;20251;-81
2023/01/20 05:21:55;;;;;;;15.87;7.83;;;2.10;99.90;;;;;;5087048;28;20235;-82
2023/01/20 05:24:23;;;;;;;17.93;9.27;;;2.10;99.90;;;;;;5085978;28;20659;-81
2023/01/20 05:26:50;;;;;;;15.17;9.30;;;2.10;99.90;;;;;;5085400;28;20208;-81
2023/01/20 05:29:18;;;;;;;19.40;11.33;;;2.10;99.90;;;;;;5086336;28;20204;-81
2023/01/20 05:31:45;;;;;;;18.40;10.77;;;2.20;99.90;;;;;;5085848;28;20203;-80
2023/01/20 05:34:11;;;;;;;17.50;10.53;;;2.20;99.90;;;;;;5085895;28;20283;-81
2023/01/20 05:36:38;;;;;;;19.57;10.07;;;2.20;99.90;;;;;;5087693;28;20510;-81
2023/01/20 05:39:05;;;;;;;19.80;10.20;;;2.20;99.90;;;;;;5087301;28;20211;-81
2023/01/20 05:41:33;;;;;;;18.77;10.73;;;2.10;99.90;;;;;;5086228;28;20224;-82
2023/01/20 05:44:00;;;;;;;18.77;11.83;;;2.10;99.90;;;;;;5087331;28;20242;-82
2023/01/20 05:46:28;;;;;;;22.67;12.03;;;2.10;99.90;;;;;;5087136;28;20259;-83
2023/01/20 05:48:55;;;;;;;23.07;11.63;;;2.10;99.90;;;;;;5087378;28;20211;-82
2023/01/20 05:51:22;;;;;;;21.87;13.40;;;2.20;99.90;;;;;;5085733;28;20197;-81
2023/01/20 05:53:49;;;;;;;23.07;13.10;;;2.20;99.90;;;;;;5086001;28;20675;-81
2023/01/20 05:56:16;;;;;;;19.77;12.00;;;2.20;99.90;;;;;;5085438;28;20300;-82
2023/01/20 05:58:43;;;;;;;23.43;13.90;;;2.20;99.90;;;;;;5085127;28;20221;-81
2023/01/20 06:01:12;;;;;;;24.40;13.30;;;2.20;99.90;;;;;;5085419;28;20216;-82
2023/01/20 06:03:40;;;;;;;21.23;13.40;;;2.20;99.90;;;;;;5085264;28;20296;-82
2023/01/20 06:06:13;;;;;;;26.70;16.17;;;2.20;99.90;;;;;;5086329;28;20208;-81
2023/01/20 06:08:40;;;;;;;25.43;15.77;;;2.20;99.90;;;;;;5084957;28;20193;-81
2023/01/20 06:11:06;;;;;;;25.70;16.37;;;2.20;99.90;;;;;;5084584;28;20311;-81
2023/01/20 06:13:34;;;;;;;25.37;15.60;;;2.10;99.90;;;;;;5084568;28;20596;-80
2023/01/20 06:16:01;;;;;;;29.23;16.97;;;2.10;99.90;;;;;;5084377;28;20204;-82
2023/01/20 06:18:29;;;;;;;30.07;18.27;;;2.10;99.90;;;;;;5085029;28;20224;-81
2023/01/20 06:20:58;;;;;;;29.17;18.17;;;2.10;99.90;;;;;;5084809;28;20228;-82
2023/01/20 06:23:26;;;;;;;32.57;19.07;;;2.20;99.90;;;;;;5099469;28;20306;-81
2023/01/20 06:25:59;;;;;;;35.70;19.63;;;2.20;99.90;;;;;;5103641;28;20203;-81
2023/01/20 06:28:25;;;;;;;34.80;19.13;;;2.20;99.90;;;;;;5104732;28;20203;-81
2023/01/20 06:30:59;;;;;;;36.47;20.07;;;2.20;99.90;;;;;;5103433;28;20223;-81
2023/01/20 06:33:26;;;;;;;34.53;20.63;;;2.20;99.90;;;;;;5084513;28;20509;-81
2023/01/20 06:35:54;;;;;;;38.47;19.00;;;2.20;99.90;;;;;;5084646;28;20200;-80
2023/01/20 06:38:23;;;;;;;31.27;18.60;;;2.20;99.90;;;;;;5083868;28;20274;-81
2023/01/20 06:40:50;;;;;;;36.80;20.37;;;2.20;99.90;;;;;;5084339;28;20317;-82
2023/01/20 06:43:17;;;;;;;34.90;19.63;;;2.20;99.90;;;;;;5084310;28;20620;-81
2023/01/20 06:45:44;;;;;;;36.20;19.40;;;2.20;99.90;;;;;;5082969;28;20232;-81
2023/01/20 06:48:11;;;;;;;37.63;20.90;;;2.20;99.90;;;;;;5084432;28;20211;-81
2023/01/20 06:50:38;;;;;;;41.87;21.67;;;2.20;99.90;;;;;;5101058;28;20318;-80
2023/01/20 06:53:05;;;;;;;41.53;23.17;;;2.20;99.90;;;;;;5089332;28;20200;-81
2023/01/20 06:55:33;;;;;;;42.23;22.17;;;2.20;99.90;;;;;;5083809;28;20200;-82
2023/01/20 06:58:00;;;;;;;40.57;21.73;;;2.20;99.90;;;;;;5083823;28;20215;-82
2023/01/20 07:00:27;;;;;;;42.67;22.57;;;2.20;99.90;;;;;;5084246;28;20318;-81
2023/01/20 07:02:54;;;;;;;44.27;23.47;;;2.20;99.90;;;;;;5084063;28;20193;-82
2023/01/20 07:05:21;;;;;;;46.67;24.93;;;2.20;99.90;;;;;;5083306;28;20292;-81
2023/01/20 07:07:48;;;;;;;48.20;25.73;;;2.10;99.90;;;;;;5097002;28;20223;-81
2023/01/20 07:10:15;;;;;;;47.60;25.80;;;2.10;99.90;;;;;;5104946;28;20202;-81
2023/01/20 07:12:43;;;;;;;49.03;25.53;;;2.10;99.90;;;;;;5104205;28;20202;-80
2023/01/20 07:15:11;;;;;;;48.97;26.23;;;2.10;99.90;;;;;;5084454;28;20530;-82
2023/01/20 07:17:38;;;;;;;45.93;24.00;;;2.10;99.90;;;;;;5082585;28;20743;-81
2023/01/20 07:20:05;;;;;;;50.27;25.83;;;2.00;99.90;;;;;;5083700;28;20310;-81
2023/01/20 07:22:32;;;;;;;47.83;26.07;;;2.10;99.90;;;;;;5084735;28;20201;-82
2023/01/20 07:24:59;;;;;;;48.90;26.47;;;2.10;99.90;;;;;;5084821;28;20228;-81
2023/01/20 07:27:26;;;;;;;48.27;24.43;;;2.10;99.90;;;;;;5083774;28;20227;-82
2023/01/20 07:29:54;;;;;;;49.90;26.70;;;2.10;99.90;;;;;;5084719;28;20203;-82
2023/01/20 07:32:21;;;;;;;47.13;25.40;;;2.20;99.90;;;;;;5104853;28;20579;-82
2023/01/20 07:34:48;;;;;;;45.80;24.63;;;2.20;99.90;;;;;;5104036;28;20283;-81
2023/01/20 07:37:15;;;;;;;45.50;24.27;;;2.10;99.90;;;;;;5104658;28;20501;-82
2023/01/20 07:39:42;;;;;;;45.57;24.00;;;2.10;99.90;;;;;;5104645;28;20204;-81
2023/01/20 07:42:08;;;;;;;44.43;22.90;;;2.20;99.90;;;;;;5103522;28;20235;-82
2023/01/20 07:44:35;;;;;;;47.77;24.27;;;2.20;99.90;;;;;;5104261;28;20257;-82
2023/01/20 07:47:04;;;;;;;46.10;23.73;;;2.20;99.90;;;;;;5104113;28;20196;-81
2023/01/20 07:49:30;;;;;;;44.50;23.30;;;2.20;99.90;;;;;;5095558;28;20319;-81
2023/01/20 07:51:57;;;;;;;36.43;20.97;;;2.20;99.90;;;;;;5083855;28;20196;-82
2023/01/20 07:54:24;;;;;;;46.10;21.50;;;2.20;99.90;;;;;;5103042;28;20345;-83
2023/01/20 07:56:51;;;;;;;40.00;21.63;;;2.20;99.90;;;;;;5107960;28;20253;-82
2023/01/20 07:59:18;;;;;;;42.43;22.40;;;2.30;99.90;;;;;;5096947;28;20695;-83
2023/01/20 08:08:49;;;;;;;38.27;20.30;;;2.30;99.90;;;;;;4985826;28;20288;-82
2023/01/20 08:11:17;;;;;;;40.07;20.17;;;2.30;99.90;;;;;;5094093;28;20236;-82
2023/01/20 08:13:45;;;;;;;34.63;19.83;;;2.20;99.90;;;;;;5095716;28;20204;-82
2023/01/20 08:16:14;;;;;;;36.97;19.47;;;2.20;99.90;;;;;;5101604;28;20260;-82
2023/01/20 08:18:41;;;;;;;34.50;20.33;;;2.20;99.90;;;;;;5093316;28;20323;-82
2023/01/20 08:21:16;;;;;;;34.33;20.20;;;2.20;99.90;;;;;;5094334;28;20314;-82
2023/01/20 08:23:43;;;;;;;36.30;19.87;;;2.20;99.90;;;;;;5099044;28;20910;-80
2023/01/20 08:26:12;;;;;;;32.07;19.90;;;2.20;99.90;;;;;;5105508;28;20618;-82
2023/01/20 08:28:39;;;;;;;32.13;18.87;;;2.30;99.90;;;;;;5105595;28;20275;-83
2023/01/20 08:31:09;;;;;;;32.00;19.23;;;2.30;99.90;;;;;;5098819;27;20200;-83
2023/01/20 08:33:37;;;;;;;33.40;18.57;;;2.20;99.90;;;;;;5108628;28;20283;-83
2023/01/20 08:36:07;;;;;;;32.97;19.53;;;2.20;99.90;;;;;;5111162;28;20226;-82
2023/01/20 08:38:34;;;;;;;35.60;20.20;;;2.20;99.90;;;;;;5094570;28;20193;-83
2023/01/20 08:41:01;;;;;;;32.77;19.00;;;2.20;99.90;;;;;;5090097;28;20266;-83
2023/01/20 08:43:29;;;;;;;37.03;20.03;;;2.20;99.90;;;;;;5089621;28;20220;-83
2023/01/20 08:46:00;;;;;;;32.23;18.83;;;2.30;99.90;;;;;;5093672;28;20211;-83
2023/01/20 08:48:28;;;;;;;31.63;18.50;;;2.30;99.90;;;;;;5107013;28;20204;-82
2023/01/20 08:50:55;;;;;;;31.13;19.37;;;2.20;99.90;;;;;;5099386;27;20296;-83
2023/01/20 08:53:22;;;;;;;33.47;19.37;;;2.30;99.90;;;;;;5115680;27;20241;-81
2023/01/20 08:55:55;;;;;;;36.93;18.93;;;2.30;99.90;;;;;;5111309;27;20295;-82
2023/01/20 08:58:22;;;;;;;29.87;17.30;;;2.30;99.90;;;;;;5121064;27;20274;-80
2023/01/20 09:00:51;;;;;;;33.17;19.53;;;2.20;99.90;;;;;;5127795;27;20227;-82
2023/01/20 09:03:18;;;;;;;30.97;17.80;;;2.30;99.90;;;;;;5100499;27;20593;-82
2023/01/20 09:05:45;;;;;;;28.90;17.90;;;2.30;99.90;;;;;;5101461;27;20208;-82
2023/01/20 09:08:13;;;;;;;26.03;16.57;;;2.30;99.90;;;;;;5093437;28;20211;-81
2023/01/20 09:10:40;;;;;;;33.17;17.77;;;2.30;99.90;;;;;;5086849;28;20200;-81
2023/01/20 09:13:07;;;;;;;30.50;17.70;;;2.20;99.90;;;;;;5094292;27;20236;-81
2023/01/20 09:15:34;;;;;;;28.67;18.77;;;2.20;99.90;;;;;;5110529;27;20295;-83
2023/01/20 09:18:02;;;;;;;36.60;19.10;;;2.30;99.90;;;;;;5104847;27;20774;-82
2023/01/20 09:20:29;;;;;;;30.57;18.70;;;2.30;99.90;;;;;;5086679;28;20225;-83
2023/01/20 09:23:00;;;;;;;37.73;21.23;;;2.30;99.90;;;;;;5085431;28;20220;-83
2023/01/20 09:25:27;;;;;;;34.43;20.83;;;2.30;99.90;;;;;;5085472;28;20492;-83
2023/01/20 09:27:54;;;;;;;31.67;19.07;;;2.30;99.90;;;;;;5096143;27;20199;-82
2023/01/20 09:30:21;;;;;;;32.10;19.97;;;2.40;99.90;;;;;;5128230;27;20188;-82
2023/01/20 09:32:51;;;;;;;33.80;21.37;;;2.40;99.90;;;;;;5127533;27;20191;-82
2023/01/20 09:35:20;;;;;;;39.10;23.00;;;2.30;99.90;;;;;;5100391;27;20205;-82
2023/01/20 09:46:27;;;;;;;34.97;21.53;;;2.40;99.90;;;;;;5097982;28;20319;-82
2023/01/20 09:54:47;;;;;;;38.50;23.73;;;2.50;99.90;;;;;;5106498;28;20227;-81
2023/01/20 09:57:15;;;;;;;39.67;23.03;;;2.50;99.90;;;;;;5089447;28;20244;-81
2023/01/20 09:59:46;;;;;;;40.97;23.63;;;2.60;99.90;;;;;;5086167;28;20960;-82
2023/01/20 10:02:17;;;;;;;40.23;22.67;;;2.60;99.90;;;;;;5085806;28;20319;-82
2023/01/20 10:04:49;;;;;;;35.57;22.37;;;2.70;99.90;;;;;;5085321;28;20204;-83
2023/01/20 10:07:25;;;;;;;43.67;24.57;;;2.70;99.90;;;;;;5103327;28;20905;-81
2023/01/20 10:09:58;;;;;;;40.50;24.70;;;2.80;99.90;;;;;;5105958;28;20490;-82
2023/01/20 10:12:32;;;;;;;38.40;24.57;;;2.90;99.90;;;;;;5107606;28;20188;-82
2023/01/20 10:15:06;;;;;;;39.50;22.33;;;3.00;99.90;;;;;;5093303;28;20355;-79
2023/01/20 10:17:37;;;;;;;45.70;24.73;;;3.10;99.90;;;;;;5084462;28;20199;-81
2023/01/20 10:20:08;;;;;;;37.20;23.07;;;3.20;99.90;;;;;;5084264;28;20318;-79
2023/01/20 10:22:42;;;;;;;39.93;24.20;;;3.30;99.90;;;;;;5085426;28;20644;-82
2023/01/20 10:25:15;;;;;;;38.47;23.33;;;3.30;99.90;;;;;;5086200;28;20204;-82
2023/01/20 10:27:51;;;;;;;38.37;23.87;;;3.40;99.90;;;;;;5085899;28;20584;-82
2023/01/20 10:30:19;;;;;;;33.33;22.07;;;3.50;99.90;;;;;;5085206;28;20196;-80
2023/01/20 10:32:52;;;;;;;35.10;22.53;;;3.50;99.90;;;;;;5085530;28;20552;-81
2023/01/20 10:35:22;;;;;;;34.33;22.60;;;3.50;99.90;;;;;;5085465;28;20324;-82
2023/01/20 10:37:52;;;;;;;37.07;22.67;;;3.60;99.90;;;;;;5085042;28;20287;-83
2023/01/20 10:40:31;;;;;;;37.40;22.97;;;3.50;99.90;;;;;;5087043;28;20202;-83
2023/01/20 10:43:01;;;;;;;34.30;22.43;;;3.60;99.90;;;;;;5084029;28;20825;-82
2023/01/20 10:45:37;;;;;;;34.63;22.87;;;3.60;99.90;;;;;;5085330;28;20211;-81
2023/01/20 10:48:14;;;;;;;33.73;21.03;;;3.50;99.90;;;;;;5084845;28;20188;-81
2023/01/20 10:50:54;;;;;;;32.13;20.70;;;3.40;99.90;;;;;;5084247;28;20212;-81
2023/01/20 10:53:56;;;;;;;28.07;18.73;;;3.50;99.90;;;;;;5100430;27;20201;-81
2023/01/20 10:56:35;;;;;;;32.90;20.03;;;3.40;99.90;;;;;;5033086;28;20212;-80
2023/01/20 10:59:09;;;;;;;26.77;18.93;;;3.30;99.90;;;;;;5090194;28;20670;-81
2023/01/20 11:01:37;;;;;;;28.67;18.50;;;3.30;99.90;;;;;;5102040;28;20435;-80
2023/01/20 11:04:04;;;;;;;29.77;19.43;;;3.20;99.90;;;;;;5103756;28;20200;-81
2023/01/20 11:06:31;;;;;;;30.03;20.77;;;3.30;99.90;;;;;;5100798;28;20193;-80
2023/01/20 11:09:18;;;;;;;30.53;19.20;;;3.20;99.90;;;;;;5085243;28;20208;-81
2023/01/20 11:11:45;;;;;;;28.23;18.20;;;3.20;99.90;;;;;;5093074;28;20231;-81
2023/01/20 11:14:12;;;;;;;27.27;18.80;;;3.20;99.90;;;;;;5097430;28;20207;-79
2023/01/20 11:16:41;;;;;;;28.23;18.97;;;3.20;99.90;;;;;;5101910;28;20204;-80
2023/01/20 11:19:08;;;;;;;30.03;19.80;;;3.20;99.90;;;;;;5097798;28;20589;-81
2023/01/20 11:21:37;;;;;;;32.03;20.33;;;3.10;99.90;;;;;;5095437;28;20271;-81
2023/01/20 11:24:31;;;;;;;29.23;20.00;;;3.10;99.90;;;;;;5098223;28;20309;-82
2023/01/20 11:27:04;;;;;;;33.17;20.47;;;3.10;99.90;;;;;;5098183;28;20214;-81
2023/01/20 11:29:38;;;;;;;30.57;21.47;;;3.20;99.90;;;;;;5096827;28;20199;-81
2023/01/20 11:32:23;;;;;;;33.20;21.70;;;3.10;99.90;;;;;;5094860;28;20297;-80
2023/01/20 11:34:50;;;;;;;29.00;20.13;;;3.10;99.90;;;;;;5096352;28;20276;-79
2023/01/20 11:37:18;;;;;;;27.47;20.40;;;3.10;99.90;;;;;;5099011;28;20213;-81
2023/01/20 11:39:59;;;;;;;25.03;18.37;;;3.20;99.90;;;;;;5096032;28;20285;-82
2023/01/20 11:42:29;;;;;;;25.97;18.27;;;3.10;99.90;;;;;;5100187;28;20945;-80
2023/01/20 11:44:58;;;;;;;25.67;18.67;;;3.20;99.90;;;;;;5091097;28;20200;-81
2023/01/20 11:47:27;;;;;;;25.37;18.20;;;3.20;99.90;;;;;;5100412;28;20196;-80
2023/01/20 11:50:22;;;;;;;27.13;20.20;;;3.30;99.90;;;;;;5096184;28;20208;-81
2023/01/20 11:52:50;;;;;;;28.00;20.57;;;3.30;99.90;;;;;;5094866;28;20819;-81
2023/01/20 11:55:20;;;;;;;27.40;18.50;;;3.30;99.90;;;;;;5095925;28;20219;-80
2023/01/20 11:57:51;;;;;;;30.37;20.13;;;3.30;99.90;;;;;;5107157;28;20798;-81
2023/01/20 12:00:39;;;;;;;28.97;20.13;;;3.30;99.90;;;;;;5103136;28;20200;-80
2023/01/20 12:03:37;;;;;;;31.13;20.73;;;3.20;99.90;;;;;;5097977;28;20231;-80
2023/01/20 12:06:12;;;;;;;29.47;19.57;;;3.20;99.90;;;;;;5104850;28;20234;-80
2023/01/20 12:08:47;;;;;;;26.60;19.00;;;3.20;99.90;;;;;;5108381;27;20283;-80
2023/01/20 12:11:20;;;;;;;27.33;18.27;;;3.20;99.90;;;;;;5104149;27;20490;-80
2023/01/20 12:16:48;;;;;;;23.87;17.60;;;3.10;99.90;;;;;;5110404;27;20206;-82
2023/01/20 12:19:20;;;;;;;28.47;19.47;;;3.10;99.90;;;;;;5111488;27;20618;-79
2023/01/20 12:21:52;;;;;;;21.97;15.80;;;3.10;99.90;;;;;;5086565;28;20228;-80
2023/01/20 12:24:23;;;;;;;21.63;15.47;;;3.10;99.90;;;;;;5086361;28;20914;-82
2023/01/20 12:26:52;;;;;;;21.43;15.73;;;3.10;99.90;;;;;;5088807;28;20201;-81
2023/01/20 12:29:22;;;;;;;24.17;17.30;;;3.10;99.90;;;;;;5101673;27;20214;-82
2023/01/20 12:31:49;;;;;;;21.87;16.27;;;3.10;99.90;;;;;;5112541;27;20203;-82
2023/01/20 12:34:24;;;;;;;25.80;16.93;;;3.10;99.90;;;;;;5098151;28;20197;-83
2023/01/20 12:37:17;;;;;;;21.40;15.50;;;3.10;99.90;;;;;;5101662;27;20284;-82
2023/01/20 12:40:03;;;;;;;27.83;17.03;;;3.20;99.90;;;;;;5096898;28;20285;-82
2023/01/20 12:43:02;;;;;;;23.47;16.47;;;3.20;99.90;;;;;;5104860;28;20216;-82
2023/01/20 12:45:44;;;;;;;25.97;15.63;;;3.20;99.90;;;;;;5095880;28;20218;-81
2023/01/20 12:48:27;;;;;;;21.20;14.23;;;3.20;99.90;;;;;;5088962;28;20199;-80
2023/01/20 12:51:09;;;;;;;23.10;13.50;;;3.20;99.90;;;;;;5106654;28;20208;-81
2023/01/20 12:54:04;;;;;;;20.40;13.90;;;3.20;99.90;;;;;;5108705;28;20191;-82
2023/01/20 12:56:43;;;;;;;16.97;12.27;;;3.20;99.90;;;;;;5104083;28;20204;-81
2023/01/20 12:59:22;;;;;;;19.40;12.10;;;3.20;99.90;;;;;;5117279;27;20199;-83
2023/01/20 13:02:09;;;;;;;18.43;13.30;;;3.20;99.90;;;;;;5107240;27;20207;-79
2023/01/20 13:04:50;;;;;;;17.10;11.47;;;3.20;99.90;;;;;;5115369;27;20208;-84
2023/01/20 13:07:39;;;;;;;18.10;12.60;;;3.30;99.90;;;;;;5111267;27;20215;-79
2023/01/20 13:10:42;;;;;;;21.30;13.23;;;3.30;99.90;;;;;;5118496;27;20209;-86
2023/01/20 13:13:18;;;;;;;19.57;13.30;;;3.30;99.90;;;;;;5126665;27;20220;-80
2023/01/20 13:15:54;;;;;;;21.67;13.60;;;3.40;99.90;;;;;;5109308;28;20199;-81
2023/01/20 13:18:29;;;;;;;22.70;14.23;;;3.50;99.90;;;;;;5108866;28;20229;-84
2023/01/20 13:20:56;;;;;;;21.90;14.40;;;3.50;99.90;;;;;;5106071;28;20194;-80
2023/01/20 13:23:26;;;;;;;24.67;14.00;;;3.60;99.90;;;;;;5106517;27;20220;-87